Time;durP1;ratioP1;P1;durP2;ratioP2;P2;SDS_P1;SDS_P2;PMS_P1;PMS_P2;Temp;Humidity;BMP_temperature;BMP_pressure;BME280_temperature;BME280_humidity;BME280_pressure;Samples;Min_cycle;Max_cycle;Signal;HPM_P1;HPM_P2
2024/03/11 00:01:44;;;;;;;26.10;15.30;;;6.90;99.90;;;;;;12422408;28;20145;-36
2024/03/11 00:07:46;;;;;;;26.83;15.27;;;6.90;99.90;;;;;;12440613;28;20053;-36
2024/03/11 00:13:50;;;;;;;26.95;15.52;;;6.90;99.90;;;;;;12442016;28;20053;-35
2024/03/11 00:19:52;;;;;;;26.77;15.50;;;7.00;99.90;;;;;;12433692;28;20164;-36
2024/03/11 00:25:54;;;;;;;26.27;15.15;;;7.00;99.90;;;;;;12441486;28;20045;-36
2024/03/11 00:31:55;;;;;;;28.08;15.48;;;7.00;99.90;;;;;;12439428;28;20046;-35
2024/03/11 00:37:57;;;;;;;28.17;15.13;;;7.00;99.90;;;;;;12436338;28;20121;-36
2024/03/11 00:43:59;;;;;;;29.13;16.00;;;6.80;99.90;;;;;;12423724;28;20042;-36
2024/03/11 00:50:06;;;;;;;26.52;15.45;;;6.80;99.90;;;;;;12422713;28;20050;-36
2024/03/11 00:56:08;;;;;;;27.35;15.27;;;6.80;99.90;;;;;;12440554;28;20096;-35
2024/03/11 01:02:10;;;;;;;27.08;15.27;;;6.70;99.90;;;;;;12439043;28;20042;-36
2024/03/11 01:08:12;;;;;;;30.20;16.38;;;6.70;99.90;;;;;;12433420;28;20061;-36
2024/03/11 01:14:15;;;;;;;29.73;15.50;;;6.70;99.90;;;;;;12430341;28;20053;-35
2024/03/11 01:20:17;;;;;;;24.75;14.55;;;6.70;99.90;;;;;;12434570;28;20049;-36
2024/03/11 01:26:19;;;;;;;27.55;14.85;;;6.70;99.90;;;;;;12439524;28;20054;-35
2024/03/11 01:32:21;;;;;;;30.55;15.25;;;6.70;99.90;;;;;;12440657;28;20514;-35
2024/03/11 01:38:23;;;;;;;28.40;14.85;;;6.60;99.90;;;;;;12438053;28;20219;-36
2024/03/11 01:44:25;;;;;;;29.30;15.57;;;6.60;99.90;;;;;;12437896;28;20198;-36
2024/03/11 01:50:27;;;;;;;27.92;15.45;;;6.60;99.90;;;;;;12439118;28;20049;-36
2024/03/11 01:56:29;;;;;;;29.55;16.27;;;6.70;99.90;;;;;;12438445;28;20050;-36
2024/03/11 02:02:31;;;;;;;30.60;15.93;;;6.90;99.90;;;;;;12437119;28;20050;-36
2024/03/11 02:08:34;;;;;;;29.52;15.70;;;6.90;99.90;;;;;;12421355;28;20050;-35
2024/03/11 02:14:36;;;;;;;29.50;16.27;;;7.00;99.90;;;;;;12437942;28;20284;-36
2024/03/11 02:20:40;;;;;;;25.10;15.05;;;7.10;99.90;;;;;;12429775;28;20062;-36
2024/03/11 02:26:45;;;;;;;27.75;15.35;;;7.20;99.90;;;;;;12434771;28;20046;-36
2024/03/11 02:32:47;;;;;;;29.40;15.45;;;7.20;99.90;;;;;;12435988;28;20042;-36
2024/03/11 02:38:49;;;;;;;27.42;15.50;;;7.20;99.90;;;;;;12447000;28;20099;-35
2024/03/11 02:44:53;;;;;;;26.92;14.57;;;7.20;99.90;;;;;;12444599;28;20133;-36
2024/03/11 02:50:55;;;;;;;29.57;15.63;;;7.30;99.90;;;;;;12443593;28;20465;-35
2024/03/11 02:56:57;;;;;;;27.58;14.98;;;7.20;99.90;;;;;;12448824;28;20113;-36
2024/03/11 03:02:59;;;;;;;30.00;15.20;;;7.10;99.90;;;;;;12447608;28;20046;-37
2024/03/11 03:09:01;;;;;;;27.27;14.95;;;7.10;99.90;;;;;;12444049;28;20045;-35
2024/03/11 03:15:05;;;;;;;28.30;16.10;;;6.90;99.90;;;;;;12444288;28;20057;-36
2024/03/11 03:21:07;;;;;;;32.70;15.85;;;7.00;99.90;;;;;;12444581;28;20046;-35
2024/03/11 03:27:09;;;;;;;28.30;15.77;;;6.90;99.90;;;;;;12445537;28;20091;-36
2024/03/11 03:33:11;;;;;;;28.73;16.13;;;6.90;99.90;;;;;;12445724;28;20383;-36
2024/03/11 03:39:13;;;;;;;29.77;15.65;;;7.00;99.90;;;;;;12444627;28;20046;-35
2024/03/11 03:45:17;;;;;;;30.73;17.02;;;7.00;99.90;;;;;;12444754;28;20096;-36
2024/03/11 03:51:19;;;;;;;30.97;16.70;;;7.10;99.90;;;;;;12442955;28;20058;-35
2024/03/11 03:57:21;;;;;;;28.55;15.60;;;7.00;99.90;;;;;;12442101;28;20053;-36
2024/03/11 04:03:23;;;;;;;30.65;16.20;;;7.00;99.90;;;;;;12444609;28;20053;-36
2024/03/11 04:09:25;;;;;;;27.60;15.35;;;7.00;99.90;;;;;;12440891;28;20090;-36
2024/03/11 04:15:29;;;;;;;25.83;14.27;;;6.90;99.90;;;;;;12425472;28;20061;-35
2024/03/11 04:21:33;;;;;;;30.02;15.73;;;6.80;99.90;;;;;;12418507;28;20042;-36
2024/03/11 04:27:35;;;;;;;28.40;15.77;;;6.70;99.90;;;;;;12443632;28;20069;-35
2024/03/11 04:33:37;;;;;;;29.23;15.63;;;6.70;99.90;;;;;;12423988;28;20414;-36
2024/03/11 04:39:40;;;;;;;30.10;16.67;;;6.70;99.90;;;;;;12441031;28;20513;-35
2024/03/11 04:45:42;;;;;;;27.13;16.05;;;6.60;99.90;;;;;;12442090;28;20207;-35
2024/03/11 04:51:45;;;;;;;29.05;16.15;;;6.60;99.90;;;;;;12441464;28;20050;-35
2024/03/11 04:57:48;;;;;;;31.20;16.45;;;6.50;99.90;;;;;;12452846;28;20073;-36
2024/03/11 05:03:50;;;;;;;29.77;16.20;;;6.50;99.90;;;;;;12442224;28;20080;-35
2024/03/11 05:09:52;;;;;;;34.33;17.75;;;6.50;99.90;;;;;;12429726;28;20050;-34
2024/03/11 05:15:54;;;;;;;31.83;17.17;;;6.40;99.90;;;;;;12440888;28;20077;-36
2024/03/11 05:21:56;;;;;;;33.63;17.50;;;6.40;99.90;;;;;;12432080;28;20188;-36
2024/03/11 05:27:58;;;;;;;33.90;18.10;;;6.40;99.90;;;;;;12417606;28;20095;-35
2024/03/11 05:34:00;;;;;;;35.97;17.65;;;6.40;99.90;;;;;;12440212;28;20057;-36
2024/03/11 05:40:05;;;;;;;35.17;18.20;;;6.50;99.90;;;;;;12429761;28;20053;-36
2024/03/11 05:46:08;;;;;;;36.17;18.52;;;6.50;99.90;;;;;;12420805;28;20045;-35
2024/03/11 05:52:10;;;;;;;31.50;18.13;;;6.50;99.90;;;;;;12440544;28;20124;-36
2024/03/11 05:58:15;;;;;;;35.50;20.42;;;6.50;99.90;;;;;;12438231;28;20141;-36
2024/03/11 06:04:18;;;;;;;36.10;19.55;;;6.50;99.90;;;;;;12439377;28;20046;-36
2024/03/11 06:10:20;;;;;;;38.58;19.67;;;6.50;99.90;;;;;;12441723;28;20082;-35
2024/03/11 06:16:24;;;;;;;34.80;20.95;;;6.50;99.90;;;;;;12446626;28;20053;-36
2024/03/11 06:22:27;;;;;;;38.58;22.33;;;6.60;99.90;;;;;;12447392;28;20049;-36
2024/03/11 06:28:34;;;;;;;38.35;20.70;;;6.60;99.90;;;;;;12433670;28;20148;-35
2024/03/11 06:34:37;;;;;;;32.08;19.50;;;6.60;99.90;;;;;;12449339;28;20054;-36
2024/03/11 06:40:39;;;;;;;35.08;19.65;;;6.70;99.90;;;;;;12444708;28;20084;-36
2024/03/11 06:46:41;;;;;;;34.53;20.20;;;6.70;99.90;;;;;;12444844;28;20136;-36
2024/03/11 06:52:47;;;;;;;36.50;20.50;;;6.70;99.90;;;;;;12445144;28;20050;-36
2024/03/11 06:58:49;;;;;;;39.20;21.05;;;6.80;99.90;;;;;;12442419;28;20053;-36
2024/03/11 07:04:51;;;;;;;35.42;20.38;;;6.80;99.90;;;;;;12428676;28;20046;-36
2024/03/11 07:10:55;;;;;;;34.30;21.92;;;6.90;99.90;;;;;;12441639;28;20081;-35
2024/03/11 07:16:57;;;;;;;35.30;22.33;;;6.80;99.90;;;;;;12441486;28;20125;-36
2024/03/11 07:23:03;;;;;;;35.40;22.25;;;6.90;99.90;;;;;;12441548;28;20049;-36
2024/03/11 07:29:06;;;;;;;35.30;23.42;;;6.90;99.90;;;;;;12446557;28;20421;-36
2024/03/11 07:35:08;;;;;;;36.65;24.63;;;7.00;99.90;;;;;;12446757;28;20053;-36
2024/03/11 07:41:11;;;;;;;35.67;24.02;;;7.10;99.90;;;;;;12445708;28;20042;-36
2024/03/11 07:47:13;;;;;;;34.20;25.45;;;7.10;99.90;;;;;;12443993;28;20061;-36
2024/03/11 07:53:15;;;;;;;35.28;25.55;;;7.20;99.90;;;;;;12442087;28;20053;-36
2024/03/11 07:59:17;;;;;;;34.55;24.65;;;7.30;99.90;;;;;;12443125;28;20042;-36
2024/03/11 08:05:19;;;;;;;36.67;25.17;;;7.30;99.90;;;;;;12443563;28;20477;-35
2024/03/11 08:11:21;;;;;;;34.70;26.95;;;7.50;99.90;;;;;;12439968;28;20112;-36
2024/03/11 08:17:23;;;;;;;33.58;28.48;;;7.60;99.90;;;;;;12443947;28;20054;-36
2024/03/11 08:23:25;;;;;;;32.72;27.20;;;7.70;99.90;;;;;;12439178;28;20049;-36
2024/03/11 08:29:30;;;;;;;41.67;32.70;;;7.90;99.90;;;;;;12424924;28;20054;-36
2024/03/11 08:35:32;;;;;;;42.50;34.88;;;8.00;99.90;;;;;;12442546;28;20046;-36
2024/03/11 08:41:34;;;;;;;40.78;36.30;;;8.30;99.90;;;;;;12438394;28;20060;-35
2024/03/11 08:47:36;;;;;;;36.95;27.05;;;8.50;99.90;;;;;;12437921;28;20054;-36
2024/03/11 08:53:39;;;;;;;34.97;28.23;;;8.70;99.90;;;;;;12436150;28;20521;-36
2024/03/11 08:59:41;;;;;;;35.85;27.67;;;8.80;99.90;;;;;;12446212;28;20042;-36
2024/03/11 09:05:45;;;;;;;37.92;25.80;;;8.90;99.90;;;;;;12423426;28;20049;-36
2024/03/11 09:11:47;;;;;;;39.67;27.25;;;9.00;99.90;;;;;;12441463;28;20383;-36
2024/03/11 09:17:50;;;;;;;37.05;28.17;;;9.10;99.90;;;;;;12438447;28;20532;-36
2024/03/11 09:23:53;;;;;;;;;;;9.50;99.90;;;;;;12441657;28;20046;-36
2024/03/11 09:29:55;;;;;;;31.10;27.67;;;9.70;99.90;;;;;;12438149;28;19928;-36
2024/03/11 09:35:58;;;;;;;34.30;30.58;;;10.20;99.90;;;;;;12440238;28;20058;-36
2024/03/11 09:42:08;;;;;;;30.48;26.77;;;10.30;99.90;;;;;;12437278;28;20073;-36
2024/03/11 09:48:10;;;;;;;28.90;25.77;;;10.30;99.90;;;;;;12438680;28;20045;-36
2024/03/11 09:54:13;;;;;;;29.30;22.98;;;10.10;99.90;;;;;;12436951;28;20068;-35
2024/03/11 10:00:23;;;;;;;23.50;18.97;;;10.00;99.90;;;;;;12438562;28;20453;-36
2024/03/11 10:06:27;;;;;;;20.58;15.80;;;9.90;99.90;;;;;;12434774;28;20046;-36
2024/03/11 10:12:31;;;;;;;17.52;14.63;;;9.90;99.90;;;;;;12436786;28;20160;-35
2024/03/11 10:18:36;;;;;;;16.77;14.75;;;9.80;99.90;;;;;;12435286;28;20050;-36
2024/03/11 10:24:38;;;;;;;;;;;9.80;99.90;;;;;;12438413;28;20171;-36
2024/03/11 10:30:40;;;;;;;15.93;14.32;;;9.90;99.90;;;;;;12439560;28;20306;-36
2024/03/11 10:36:44;;;;;;;15.88;14.38;;;10.00;99.90;;;;;;12438005;28;20061;-36
2024/03/11 10:42:53;;;;;;;12.45;11.35;;;10.40;99.90;;;;;;12436393;28;20088;-36
2024/03/11 10:48:56;;;;;;;11.98;10.98;;;10.50;99.90;;;;;;12436386;28;20153;-36
2024/03/11 10:54:59;;;;;;;10.13;9.25;;;10.30;99.90;;;;;;12442495;28;20049;-36
2024/03/11 11:01:05;;;;;;;8.70;7.95;;;9.90;99.90;;;;;;12426319;28;20128;-36
2024/03/11 11:07:08;;;;;;;8.60;7.80;;;10.00;99.90;;;;;;12444381;28;20089;-36
2024/03/11 11:13:13;;;;;;;7.45;6.75;;;10.00;99.90;;;;;;12435762;28;20054;-36
2024/03/11 11:19:25;;;;;;;7.80;7.10;;;9.80;99.90;;;;;;12443249;28;20045;-36
2024/03/11 11:25:41;;;;;;;8.77;7.93;;;9.60;99.90;;;;;;12435836;28;20046;-36
2024/03/11 11:32:03;;;;;;;7.22;6.45;;;9.50;99.90;;;;;;12437965;28;20566;-36
2024/03/11 11:38:27;;;;;;;8.10;6.65;;;9.40;99.90;;;;;;12438191;28;20064;-36
2024/03/11 11:44:33;;;;;;;7.80;7.10;;;9.40;99.90;;;;;;12442845;28;20083;-36
2024/03/11 11:50:35;;;;;;;7.22;6.53;;;9.30;99.90;;;;;;12440020;28;20521;-37
2024/03/11 11:56:38;;;;;;;7.07;5.75;;;9.40;99.90;;;;;;12443174;28;20418;-36
2024/03/11 12:02:45;;;;;;;8.43;6.70;;;9.50;99.90;;;;;;12442490;28;20092;-36
2024/03/11 12:08:53;;;;;;;7.75;6.95;;;9.50;99.90;;;;;;12440374;28;20046;-36
2024/03/11 12:14:56;;;;;;;7.32;5.85;;;9.40;99.90;;;;;;12438310;28;20049;-36
2024/03/11 12:21:06;;;;;;;6.53;5.60;;;9.20;99.90;;;;;;12425619;28;20495;-36
2024/03/11 12:27:14;;;;;;;6.57;5.63;;;9.40;99.90;;;;;;12439911;28;20042;-36
2024/03/11 12:33:17;;;;;;;7.13;6.47;;;9.40;99.90;;;;;;12432430;28;20176;-36
2024/03/11 12:39:42;;;;;;;5.47;4.93;;;9.50;99.90;;;;;;12436974;28;20050;-36
2024/03/11 12:45:48;;;;;;;4.28;3.97;;;9.30;99.90;;;;;;12416189;28;20046;-36
2024/03/11 12:52:09;;;;;;;4.18;3.88;;;9.30;99.90;;;;;;12438275;28;20042;-35
2024/03/11 12:58:16;;;;;;;4.28;3.92;;;9.50;99.90;;;;;;12440428;28;20049;-36
2024/03/11 13:04:19;;;;;;;4.32;4.03;;;9.60;99.90;;;;;;12439475;28;20054;-35
2024/03/11 13:10:21;;;;;;;4.60;4.30;;;9.60;99.90;;;;;;12438675;28;20057;-35
2024/03/11 13:16:23;;;;;;;4.20;3.90;;;9.50;99.90;;;;;;12440552;28;20164;-35
2024/03/11 13:22:30;;;;;;;4.68;4.38;;;10.10;99.90;;;;;;12437634;28;20053;-35
2024/03/11 13:28:32;;;;;;;4.57;4.28;;;10.10;99.90;;;;;;12412478;28;20505;-36
2024/03/11 13:34:40;;;;;;;4.13;3.92;;;10.00;99.90;;;;;;12420618;28;20061;-36
2024/03/11 13:40:42;;;;;;;4.68;4.38;;;10.10;99.90;;;;;;12439081;28;20428;-36
2024/03/11 13:46:46;;;;;;;4.53;4.22;;;9.90;99.90;;;;;;12438573;28;20081;-36
2024/03/11 13:52:48;;;;;;;4.10;3.80;;;9.80;99.90;;;;;;12439368;28;20053;-36
2024/03/11 13:58:50;;;;;;;3.65;3.45;;;9.50;99.90;;;;;;12418220;28;20092;-36
2024/03/11 14:04:52;;;;;;;4.05;3.75;;;9.50;99.90;;;;;;12437355;28;20053;-35
2024/03/11 14:10:56;;;;;;;3.85;3.65;;;9.50;99.90;;;;;;12437959;28;20605;-36
2024/03/11 14:16:58;;;;;;;3.40;3.20;;;9.50;99.90;;;;;;12429670;28;20532;-36
2024/03/11 14:23:02;;;;;;;3.58;3.38;;;9.50;99.90;;;;;;12438188;28;20069;-35
2024/03/11 14:29:12;;;;;;;3.22;3.03;;;9.30;99.90;;;;;;12442527;28;20073;-36
2024/03/11 14:35:15;;;;;;;3.17;2.97;;;9.20;99.90;;;;;;12445989;28;20495;-36
2024/03/11 14:41:18;;;;;;;2.97;2.78;;;9.10;99.90;;;;;;12446976;28;20153;-36
2024/03/11 14:47:20;;;;;;;2.70;2.50;;;9.10;99.90;;;;;;12445744;28;20469;-35
2024/03/11 14:53:26;;;;;;;2.72;2.53;;;9.10;99.90;;;;;;12447018;28;20100;-35
2024/03/11 14:59:31;;;;;;;2.75;2.55;;;9.10;99.90;;;;;;12426913;28;20050;-35
2024/03/11 15:05:38;;;;;;;2.90;2.70;;;9.00;99.90;;;;;;12443509;28;20498;-36
2024/03/11 15:11:43;;;;;;;3.67;2.40;;;9.00;99.90;;;;;;12446078;28;20103;-35
2024/03/11 15:17:44;;;;;;;2.55;2.35;;;9.00;99.90;;;;;;12443124;28;20050;-35
2024/03/11 15:23:48;;;;;;;2.28;2.13;;;9.00;99.90;;;;;;12441049;28;20046;-36
2024/03/11 15:29:50;;;;;;;2.15;2.05;;;9.00;99.90;;;;;;12444342;28;20380;-36
2024/03/11 15:35:52;;;;;;;2.47;2.28;;;9.00;99.90;;;;;;12446940;28;20061;-35
2024/03/11 15:41:55;;;;;;;2.47;2.28;;;9.00;99.90;;;;;;12443151;28;20475;-35
2024/03/11 15:47:57;;;;;;;3.50;2.88;;;9.10;99.90;;;;;;12445287;28;20091;-35
2024/03/11 15:53:59;;;;;;;2.60;2.40;;;9.00;99.90;;;;;;12444454;28;20053;-35
2024/03/11 16:00:01;;;;;;;2.53;2.33;;;9.00;99.90;;;;;;12451366;28;20099;-36
2024/03/11 16:06:04;;;;;;;2.47;2.28;;;9.00;99.90;;;;;;12440732;28;20042;-35
2024/03/11 16:12:06;;;;;;;4.10;2.22;;;9.10;99.90;;;;;;12442086;28;20483;-35
2024/03/11 16:18:12;;;;;;;2.30;2.10;;;9.10;99.90;;;;;;12434297;28;20041;-36
2024/03/11 16:24:15;;;;;;;2.47;2.28;;;9.10;99.90;;;;;;12441050;28;20414;-35
2024/03/11 16:30:25;;;;;;;2.47;2.28;;;9.10;99.90;;;;;;12442488;28;20050;-35
2024/03/11 16:36:27;;;;;;;2.40;2.10;;;9.10;99.90;;;;;;12442070;28;20537;-36
2024/03/11 16:42:31;;;;;;;2.08;1.98;;;9.10;99.90;;;;;;12436655;28;20150;-35
2024/03/11 16:48:33;;;;;;;2.22;2.03;;;9.00;99.90;;;;;;12438651;28;20049;-35
2024/03/11 16:54:35;;;;;;;2.00;1.90;;;9.00;99.90;;;;;;12436660;28;20046;-35
2024/03/11 17:00:39;;;;;;;2.10;1.98;;;8.90;99.90;;;;;;12435766;28;20049;-35
2024/03/11 17:06:41;;;;;;;2.40;2.20;;;8.90;99.90;;;;;;12439489;28;20052;-35
2024/03/11 17:12:44;;;;;;;2.17;1.95;;;8.90;99.90;;;;;;12438810;28;20076;-35
2024/03/11 17:18:48;;;;;;;1.90;1.80;;;8.90;99.90;;;;;;12437710;28;20045;-35
2024/03/11 17:24:50;;;;;;;1.92;1.80;;;8.90;99.90;;;;;;12438146;28;20042;-35
2024/03/11 17:30:53;;;;;;;2.10;1.90;;;8.90;99.90;;;;;;12438909;28;20042;-35
2024/03/11 17:36:57;;;;;;;3.67;2.30;;;8.80;99.90;;;;;;12432644;28;20054;-35
2024/03/11 17:42:59;;;;;;;2.03;1.83;;;8.70;99.90;;;;;;12433629;28;20049;-36
2024/03/11 17:49:01;;;;;;;1.83;1.70;;;8.60;99.90;;;;;;12439988;28;20046;-35
2024/03/11 17:55:06;;;;;;;1.92;1.55;;;8.60;99.90;;;;;;12438993;28;20153;-35
2024/03/11 18:01:09;;;;;;;2.30;2.00;;;8.60;99.90;;;;;;12439563;28;20042;-35
2024/03/11 18:07:11;;;;;;;1.70;1.60;;;8.50;99.90;;;;;;12439195;28;20050;-35
2024/03/11 18:13:15;;;;;;;2.17;1.85;;;8.50;99.90;;;;;;12435762;28;20054;-36
2024/03/11 18:19:21;;;;;;;;;;;8.40;99.90;;;;;;12491823;23;20045;-80
2024/03/11 18:25:33;;;;;;;2.38;1.75;;;8.30;99.90;;;;;;12541891;28;19985;-78
2024/03/11 18:31:35;;;;;;;1.98;1.77;;;8.30;99.90;;;;;;12533288;28;20071;-78
2024/03/11 18:37:38;;;;;;;2.10;1.90;;;8.20;99.90;;;;;;12551490;28;20053;-79
2024/03/11 18:43:41;;;;;;;2.30;1.90;;;8.10;99.90;;;;;;12521519;28;20152;-78
2024/03/11 18:49:44;;;;;;;2.07;1.87;;;8.20;99.90;;;;;;12513871;28;20041;-82
2024/03/11 18:55:45;;;;;;;2.28;1.90;;;8.30;99.90;;;;;;12535818;28;20049;-82
2024/03/11 19:01:49;;;;;;;2.72;2.00;;;8.20;99.90;;;;;;12531275;28;20411;-83
2024/03/11 19:07:53;;;;;;;2.33;1.90;;;8.20;99.90;;;;;;12509165;28;20061;-82
2024/03/11 19:14:02;;;;;;;6.30;2.40;;;8.10;99.90;;;;;;12469726;28;20530;-82
2024/03/11 19:20:08;;;;;;;2.72;2.05;;;8.00;99.90;;;;;;12485345;28;20311;-81
2024/03/11 19:26:10;;;;;;;2.63;2.00;;;8.10;99.90;;;;;;12481803;28;20486;-80
2024/03/11 19:32:12;;;;;;;2.22;1.90;;;8.10;99.90;;;;;;12503719;28;20045;-79
2024/03/11 19:38:55;;;;;;;3.58;2.20;;;8.10;99.90;;;;;;12488297;28;20061;-79
2024/03/11 19:45:36;;;;;;;2.15;1.88;;;8.00;99.90;;;;;;12487440;28;20065;-80
2024/03/11 19:52:00;;;;;;;2.58;2.10;;;7.90;99.90;;;;;;12477823;28;20049;-81
2024/03/11 19:58:24;;;;;;;2.85;2.35;;;7.90;99.90;;;;;;12497671;28;20474;-79
2024/03/11 20:05:10;;;;;;;2.58;2.10;;;7.80;99.90;;;;;;12481783;28;20505;-81
2024/03/11 20:11:37;;;;;;;2.53;2.03;;;7.90;99.90;;;;;;12473790;28;20060;-80
2024/03/11 20:17:59;;;;;;;2.40;2.20;;;7.80;99.90;;;;;;12470571;28;20056;-82
2024/03/11 20:24:41;;;;;;;3.70;2.30;;;7.80;99.90;;;;;;12500442;28;20044;-81
2024/03/11 20:31:06;;;;;;;2.72;2.15;;;7.70;99.90;;;;;;12475855;28;20513;-81
2024/03/11 20:37:10;;;;;;;;;;;7.50;99.90;;;;;;12473248;28;20045;-81
2024/03/11 20:43:12;;;;;;;2.78;2.20;;;7.40;99.90;;;;;;12482368;28;19929;-81
2024/03/11 20:49:15;;;;;;;2.15;1.92;;;7.30;99.90;;;;;;12469262;28;20050;-81
2024/03/11 20:55:17;;;;;;;2.50;2.10;;;7.30;99.90;;;;;;12481090;28;20053;-80
2024/03/11 21:01:19;;;;;;;2.90;2.30;;;7.10;99.90;;;;;;12471003;28;20523;-79
2024/03/11 21:07:21;;;;;;;3.35;2.47;;;7.00;99.90;;;;;;12474201;28;20089;-81
2024/03/11 21:13:23;;;;;;;3.03;2.42;;;6.90;99.90;;;;;;12500216;28;20540;-78
2024/03/11 21:19:36;;;;;;;3.10;2.53;;;6.80;99.90;;;;;;12504409;28;20056;-79
2024/03/11 21:26:17;;;;;;;3.00;2.50;;;6.70;99.90;;;;;;12495504;28;20083;-79
2024/03/11 21:32:06;;;;;;;3.50;2.60;;;6.70;99.90;;;;;;12505673;28;20053;-78
2024/03/11 21:38:08;;;;;;;3.20;2.28;;;6.70;99.90;;;;;;12484408;28;20060;-78
2024/03/11 21:44:24;;;;;;;3.92;3.00;;;6.80;99.90;;;;;;12506610;28;20053;-79
2024/03/11 21:50:26;;;;;;;5.27;3.40;;;6.90;99.90;;;;;;12500548;28;20045;-79
2024/03/11 21:56:28;;;;;;;4.13;3.08;;;7.00;99.90;;;;;;12498130;28;20056;-79
2024/03/11 22:02:30;;;;;;;3.70;2.88;;;7.10;99.90;;;;;;12493528;28;20405;-79
2024/03/11 22:08:31;;;;;;;3.50;2.90;;;7.10;99.90;;;;;;12508996;28;20057;-78
2024/03/11 22:14:34;;;;;;;5.88;3.40;;;7.10;99.90;;;;;;12503279;28;20053;-79
2024/03/11 22:20:36;;;;;;;6.30;3.22;;;7.10;99.90;;;;;;12470165;28;20076;-79
2024/03/11 22:26:43;;;;;;;5.88;3.22;;;7.40;99.90;;;;;;12494905;28;20045;-78
2024/03/11 22:32:45;;;;;;;5.38;3.50;;;7.60;99.90;;;;;;12484936;28;20068;-78
2024/03/11 22:38:47;;;;;;;6.47;3.83;;;7.70;99.90;;;;;;12503362;28;20382;-79
2024/03/11 22:44:49;;;;;;;5.25;3.90;;;7.70;99.90;;;;;;12502631;28;20057;-78
2024/03/11 22:50:51;;;;;;;4.22;3.28;;;7.80;99.90;;;;;;12489173;28;20095;-78
2024/03/11 22:57:06;;;;;;;5.45;3.58;;;7.80;99.90;;;;;;12502779;28;20068;-79
2024/03/11 23:03:08;;;;;;;5.03;3.38;;;7.80;99.90;;;;;;12511041;28;20045;-80
2024/03/11 23:09:10;;;;;;;4.57;3.53;;;7.80;99.90;;;;;;12525435;28;20137;-80
2024/03/11 23:15:13;;;;;;;5.32;3.85;;;7.90;99.90;;;;;;12457549;28;20562;-81
2024/03/11 23:21:16;;;;;;;4.68;3.80;;;7.90;99.90;;;;;;12477803;28;20338;-81
2024/03/11 23:27:18;;;;;;;4.40;3.97;;;7.90;99.90;;;;;;12481123;28;20522;-81
2024/03/11 23:33:20;;;;;;;3.75;3.10;;;7.90;99.90;;;;;;12487406;28;20053;-80
2024/03/11 23:39:23;;;;;;;4.68;3.60;;;7.90;99.90;;;;;;12468617;28;20189;-80
2024/03/11 23:45:28;;;;;;;3.72;3.33;;;7.90;99.90;;;;;;12470891;28;20132;-80
2024/03/11 23:51:31;;;;;;;5.13;3.83;;;7.80;99.90;;;;;;12461708;28;20053;-80
2024/03/11 23:57:33;;;;;;;4.60;3.97;;;7.80;99.90;;;;;;12483273;28;20045;-80
